sensor_id;sensor_type;location;lat;lon;timestamp;P1;durP1;ratioP1;P2;durP2;ratioP2
40254;SDS011;25973;52.368;4.940;2023-05-09T00:00:12;42.80;;;16.45;;
40254;SDS011;25973;52.368;4.940;2023-05-09T00:02:38;42.40;;;16.05;;
40254;SDS011;25973;52.368;4.940;2023-05-09T00:05:04;37.50;;;16.52;;
40254;SDS011;25973;52.368;4.940;2023-05-09T00:07:31;43.05;;;16.20;;
40254;SDS011;25973;52.368;4.940;2023-05-09T00:09:57;41.20;;;16.27;;
40254;SDS011;25973;52.368;4.940;2023-05-09T00:12:23;36.83;;;17.20;;
40254;SDS011;25973;52.368;4.940;2023-05-09T00:14:49;44.63;;;18.63;;
40254;SDS011;25973;52.368;4.940;2023-05-09T00:17:15;41.03;;;17.42;;
40254;SDS011;25973;52.368;4.940;2023-05-09T00:19:42;39.70;;;17.80;;
40254;SDS011;25973;52.368;4.940;2023-05-09T00:22:08;46.53;;;19.15;;
40254;SDS011;25973;52.368;4.940;2023-05-09T00:24:36;41.75;;;17.95;;
40254;SDS011;25973;52.368;4.940;2023-05-09T00:27:02;45.47;;;18.67;;
40254;SDS011;25973;52.368;4.940;2023-05-09T00:29:28;41.60;;;18.63;;
40254;SDS011;25973;52.368;4.940;2023-05-09T00:31:53;46.30;;;19.02;;
40254;SDS011;25973;52.368;4.940;2023-05-09T00:34:19;44.50;;;19.15;;
40254;SDS011;25973;52.368;4.940;2023-05-09T00:36:45;49.03;;;20.25;;
40254;SDS011;25973;52.368;4.940;2023-05-09T00:39:10;44.60;;;18.70;;
40254;SDS011;25973;52.368;4.940;2023-05-09T00:41:37;44.20;;;18.02;;
40254;SDS011;25973;52.368;4.940;2023-05-09T00:44:03;44.17;;;20.70;;
40254;SDS011;25973;52.368;4.940;2023-05-09T00:46:28;49.53;;;19.77;;
40254;SDS011;25973;52.368;4.940;2023-05-09T00:48:54;47.08;;;18.13;;
40254;SDS011;25973;52.368;4.940;2023-05-09T00:51:20;45.78;;;18.45;;
40254;SDS011;25973;52.368;4.940;2023-05-09T00:53:46;54.38;;;19.88;;
40254;SDS011;25973;52.368;4.940;2023-05-09T00:56:12;47.53;;;19.67;;
40254;SDS011;25973;52.368;4.940;2023-05-09T00:58:39;45.88;;;20.88;;
40254;SDS011;25973;52.368;4.940;2023-05-09T01:01:05;50.10;;;19.40;;
40254;SDS011;25973;52.368;4.940;2023-05-09T01:03:32;40.90;;;19.85;;
40254;SDS011;25973;52.368;4.940;2023-05-09T01:06:21;48.40;;;21.20;;
40254;SDS011;25973;52.368;4.940;2023-05-09T01:08:58;50.20;;;19.50;;
40254;SDS011;25973;52.368;4.940;2023-05-09T01:11:53;43.33;;;21.17;;
40254;SDS011;25973;52.368;4.940;2023-05-09T01:14:32;49.17;;;20.83;;
40254;SDS011;25973;52.368;4.940;2023-05-09T01:20:00;52.65;;;21.05;;
40254;SDS011;25973;52.368;4.940;2023-05-09T01:22:30;49.60;;;22.25;;
40254;SDS011;25973;52.368;4.940;2023-05-09T01:25:11;52.90;;;23.90;;
40254;SDS011;25973;52.368;4.940;2023-05-09T01:30:24;51.85;;;21.25;;
40254;SDS011;25973;52.368;4.940;2023-05-09T01:32:51;48.85;;;21.30;;
40254;SDS011;25973;52.368;4.940;2023-05-09T01:35:22;44.45;;;21.00;;
40254;SDS011;25973;52.368;4.940;2023-05-09T01:37:50;48.83;;;20.60;;
40254;SDS011;25973;52.368;4.940;2023-05-09T01:40:17;43.75;;;21.55;;
40254;SDS011;25973;52.368;4.940;2023-05-09T01:42:53;42.38;;;20.25;;
40254;SDS011;25973;52.368;4.940;2023-05-09T01:45:23;49.10;;;20.00;;
40254;SDS011;25973;52.368;4.940;2023-05-09T01:47:50;46.03;;;20.88;;
40254;SDS011;25973;52.368;4.940;2023-05-09T01:50:17;47.08;;;19.38;;
40254;SDS011;25973;52.368;4.940;2023-05-09T01:52:45;49.05;;;19.13;;
40254;SDS011;25973;52.368;4.940;2023-05-09T01:55:13;40.45;;;19.08;;
40254;SDS011;25973;52.368;4.940;2023-05-09T01:57:41;46.38;;;19.42;;
40254;SDS011;25973;52.368;4.940;2023-05-09T02:00:08;45.83;;;19.58;;
40254;SDS011;25973;52.368;4.940;2023-05-09T02:02:34;39.55;;;19.27;;
40254;SDS011;25973;52.368;4.940;2023-05-09T02:05:01;43.88;;;18.33;;
40254;SDS011;25973;52.368;4.940;2023-05-09T02:07:27;41.03;;;18.13;;
40254;SDS011;25973;52.368;4.940;2023-05-09T02:09:54;41.63;;;17.40;;
40254;SDS011;25973;52.368;4.940;2023-05-09T02:12:24;37.30;;;17.80;;
40254;SDS011;25973;52.368;4.940;2023-05-09T02:14:50;36.53;;;17.98;;
40254;SDS011;25973;52.368;4.940;2023-05-09T02:17:16;37.58;;;18.35;;
40254;SDS011;25973;52.368;4.940;2023-05-09T02:19:42;38.42;;;16.63;;
40254;SDS011;25973;52.368;4.940;2023-05-09T02:22:08;43.97;;;19.27;;
40254;SDS011;25973;52.368;4.940;2023-05-09T02:24:35;33.83;;;16.05;;
40254;SDS011;25973;52.368;4.940;2023-05-09T02:27:01;34.13;;;15.40;;
40254;SDS011;25973;52.368;4.940;2023-05-09T02:29:31;39.95;;;16.35;;
40254;SDS011;25973;52.368;4.940;2023-05-09T02:32:05;44.33;;;17.20;;
40254;SDS011;25973;52.368;4.940;2023-05-09T02:34:35;36.55;;;17.80;;
40254;SDS011;25973;52.368;4.940;2023-05-09T02:37:02;36.58;;;17.33;;
40254;SDS011;25973;52.368;4.940;2023-05-09T02:39:29;36.03;;;15.60;;
40254;SDS011;25973;52.368;4.940;2023-05-09T02:41:55;32.17;;;16.15;;
40254;SDS011;25973;52.368;4.940;2023-05-09T02:44:20;38.53;;;17.15;;
40254;SDS011;25973;52.368;4.940;2023-05-09T02:46:46;28.42;;;15.43;;
40254;SDS011;25973;52.368;4.940;2023-05-09T02:49:11;36.75;;;14.95;;
40254;SDS011;25973;52.368;4.940;2023-05-09T02:51:37;36.65;;;16.40;;
40254;SDS011;25973;52.368;4.940;2023-05-09T02:54:03;40.55;;;15.52;;
40254;SDS011;25973;52.368;4.940;2023-05-09T02:56:28;35.63;;;15.32;;
40254;SDS011;25973;52.368;4.940;2023-05-09T02:58:54;37.15;;;15.68;;
40254;SDS011;25973;52.368;4.940;2023-05-09T03:01:19;32.72;;;15.82;;
40254;SDS011;25973;52.368;4.940;2023-05-09T03:03:45;34.95;;;15.20;;
40254;SDS011;25973;52.368;4.940;2023-05-09T03:06:11;37.83;;;17.25;;
40254;SDS011;25973;52.368;4.940;2023-05-09T03:08:36;37.85;;;15.80;;
40254;SDS011;25973;52.368;4.940;2023-05-09T03:11:02;36.65;;;15.20;;
40254;SDS011;25973;52.368;4.940;2023-05-09T03:13:27;35.20;;;15.50;;
40254;SDS011;25973;52.368;4.940;2023-05-09T03:15:53;37.53;;;15.93;;
40254;SDS011;25973;52.368;4.940;2023-05-09T03:18:18;34.05;;;15.52;;
40254;SDS011;25973;52.368;4.940;2023-05-09T03:20:44;32.00;;;14.00;;
40254;SDS011;25973;52.368;4.940;2023-05-09T03:23:10;32.83;;;15.25;;
40254;SDS011;25973;52.368;4.940;2023-05-09T03:25:35;30.90;;;14.82;;
40254;SDS011;25973;52.368;4.940;2023-05-09T03:28:01;33.03;;;15.45;;
40254;SDS011;25973;52.368;4.940;2023-05-09T03:30:26;37.50;;;16.65;;
40254;SDS011;25973;52.368;4.940;2023-05-09T03:32:52;39.67;;;15.75;;
40254;SDS011;25973;52.368;4.940;2023-05-09T03:35:17;36.75;;;16.08;;
40254;SDS011;25973;52.368;4.940;2023-05-09T03:37:43;36.33;;;15.35;;
40254;SDS011;25973;52.368;4.940;2023-05-09T03:40:08;34.35;;;16.27;;
40254;SDS011;25973;52.368;4.940;2023-05-09T03:42:34;35.63;;;15.43;;
40254;SDS011;25973;52.368;4.940;2023-05-09T03:45:00;38.13;;;14.77;;
40254;SDS011;25973;52.368;4.940;2023-05-09T03:47:25;28.20;;;14.20;;
40254;SDS011;25973;52.368;4.940;2023-05-09T03:49:51;33.08;;;14.70;;
40254;SDS011;25973;52.368;4.940;2023-05-09T03:52:17;30.92;;;13.07;;
40254;SDS011;25973;52.368;4.940;2023-05-09T03:54:43;32.10;;;14.52;;
40254;SDS011;25973;52.368;4.940;2023-05-09T03:57:08;33.42;;;14.50;;
40254;SDS011;25973;52.368;4.940;2023-05-09T03:59:34;34.85;;;14.40;;
40254;SDS011;25973;52.368;4.940;2023-05-09T04:02:00;32.60;;;14.05;;
40254;SDS011;25973;52.368;4.940;2023-05-09T04:04:25;31.65;;;14.40;;
40254;SDS011;25973;52.368;4.940;2023-05-09T04:06:51;26.10;;;13.77;;
40254;SDS011;25973;52.368;4.940;2023-05-09T04:09:17;29.40;;;12.52;;
40254;SDS011;25973;52.368;4.940;2023-05-09T04:11:43;29.55;;;13.70;;
40254;SDS011;25973;52.368;4.940;2023-05-09T04:14:08;32.05;;;12.48;;
40254;SDS011;25973;52.368;4.940;2023-05-09T04:16:34;27.25;;;13.00;;
40254;SDS011;25973;52.368;4.940;2023-05-09T04:18:59;27.05;;;12.35;;
40254;SDS011;25973;52.368;4.940;2023-05-09T04:21:25;25.95;;;12.50;;
40254;SDS011;25973;52.368;4.940;2023-05-09T04:23:50;22.23;;;11.88;;
40254;SDS011;25973;52.368;4.940;2023-05-09T04:26:16;28.38;;;12.27;;
40254;SDS011;25973;52.368;4.940;2023-05-09T04:28:42;27.33;;;10.68;;
40254;SDS011;25973;52.368;4.940;2023-05-09T04:31:07;26.10;;;10.95;;
40254;SDS011;25973;52.368;4.940;2023-05-09T04:33:33;25.42;;;11.65;;
40254;SDS011;25973;52.368;4.940;2023-05-09T04:36:00;23.60;;;11.02;;
40254;SDS011;25973;52.368;4.940;2023-05-09T04:38:25;21.67;;;10.73;;
40254;SDS011;25973;52.368;4.940;2023-05-09T04:40:51;25.45;;;11.57;;
40254;SDS011;25973;52.368;4.940;2023-05-09T04:43:17;23.65;;;10.27;;
40254;SDS011;25973;52.368;4.940;2023-05-09T04:45:43;22.83;;;10.30;;
40254;SDS011;25973;52.368;4.940;2023-05-09T04:48:09;19.92;;;9.13;;
40254;SDS011;25973;52.368;4.940;2023-05-09T04:50:34;22.83;;;9.68;;
40254;SDS011;25973;52.368;4.940;2023-05-09T04:53:00;19.80;;;9.68;;
40254;SDS011;25973;52.368;4.940;2023-05-09T04:55:25;16.90;;;8.35;;
40254;SDS011;25973;52.368;4.940;2023-05-09T04:57:51;18.17;;;9.57;;
40254;SDS011;25973;52.368;4.940;2023-05-09T05:00:17;18.20;;;9.55;;
40254;SDS011;25973;52.368;4.940;2023-05-09T05:02:43;27.15;;;10.85;;
40254;SDS011;25973;52.368;4.940;2023-05-09T05:05:08;19.95;;;10.00;;
40254;SDS011;25973;52.368;4.940;2023-05-09T05:07:34;17.83;;;9.77;;
40254;SDS011;25973;52.368;4.940;2023-05-09T05:09:59;21.02;;;9.80;;
40254;SDS011;25973;52.368;4.940;2023-05-09T05:12:25;29.45;;;10.60;;
40254;SDS011;25973;52.368;4.940;2023-05-09T05:14:50;22.83;;;9.43;;
40254;SDS011;25973;52.368;4.940;2023-05-09T05:17:16;20.42;;;9.20;;
40254;SDS011;25973;52.368;4.940;2023-05-09T05:19:42;21.38;;;10.20;;
40254;SDS011;25973;52.368;4.940;2023-05-09T05:22:08;21.55;;;10.15;;
40254;SDS011;25973;52.368;4.940;2023-05-09T05:24:33;22.33;;;9.75;;
40254;SDS011;25973;52.368;4.940;2023-05-09T05:26:58;20.90;;;8.68;;
40254;SDS011;25973;52.368;4.940;2023-05-09T05:29:24;20.98;;;9.57;;
40254;SDS011;25973;52.368;4.940;2023-05-09T05:31:50;22.35;;;9.82;;
40254;SDS011;25973;52.368;4.940;2023-05-09T05:34:15;20.25;;;9.52;;
40254;SDS011;25973;52.368;4.940;2023-05-09T05:36:41;21.15;;;9.07;;
40254;SDS011;25973;52.368;4.940;2023-05-09T05:39:06;22.23;;;8.82;;
40254;SDS011;25973;52.368;4.940;2023-05-09T05:41:32;29.38;;;10.25;;
40254;SDS011;25973;52.368;4.940;2023-05-09T05:43:58;23.27;;;9.05;;
40254;SDS011;25973;52.368;4.940;2023-05-09T05:46:23;23.73;;;9.93;;
40254;SDS011;25973;52.368;4.940;2023-05-09T05:48:49;24.50;;;10.40;;
40254;SDS011;25973;52.368;4.940;2023-05-09T05:51:15;18.75;;;8.40;;
40254;SDS011;25973;52.368;4.940;2023-05-09T05:53:40;19.90;;;8.68;;
40254;SDS011;25973;52.368;4.940;2023-05-09T05:56:06;23.50;;;9.02;;
40254;SDS011;25973;52.368;4.940;2023-05-09T05:58:31;21.00;;;8.85;;
40254;SDS011;25973;52.368;4.940;2023-05-09T06:00:57;18.83;;;9.23;;
40254;SDS011;25973;52.368;4.940;2023-05-09T06:03:22;26.15;;;10.07;;
40254;SDS011;25973;52.368;4.940;2023-05-09T06:05:48;19.58;;;9.13;;
40254;SDS011;25973;52.368;4.940;2023-05-09T06:08:15;17.88;;;8.30;;
40254;SDS011;25973;52.368;4.940;2023-05-09T06:10:40;19.35;;;9.00;;
40254;SDS011;25973;52.368;4.940;2023-05-09T06:13:06;23.45;;;9.00;;
40254;SDS011;25973;52.368;4.940;2023-05-09T06:15:31;20.23;;;9.30;;
40254;SDS011;25973;52.368;4.940;2023-05-09T06:17:57;17.90;;;8.32;;
40254;SDS011;25973;52.368;4.940;2023-05-09T06:20:23;19.05;;;9.30;;
40254;SDS011;25973;52.368;4.940;2023-05-09T06:22:49;18.73;;;8.23;;
40254;SDS011;25973;52.368;4.940;2023-05-09T06:25:14;20.38;;;8.57;;
40254;SDS011;25973;52.368;4.940;2023-05-09T06:27:40;20.17;;;8.65;;
40254;SDS011;25973;52.368;4.940;2023-05-09T06:30:06;25.27;;;10.02;;
40254;SDS011;25973;52.368;4.940;2023-05-09T06:32:32;21.75;;;9.20;;
40254;SDS011;25973;52.368;4.940;2023-05-09T06:34:58;21.45;;;8.63;;
40254;SDS011;25973;52.368;4.940;2023-05-09T06:37:23;20.17;;;8.90;;
40254;SDS011;25973;52.368;4.940;2023-05-09T06:39:49;21.77;;;9.00;;
40254;SDS011;25973;52.368;4.940;2023-05-09T06:42:14;22.25;;;9.65;;
40254;SDS011;25973;52.368;4.940;2023-05-09T06:44:40;25.08;;;11.98;;
40254;SDS011;25973;52.368;4.940;2023-05-09T06:47:09;20.88;;;9.23;;
40254;SDS011;25973;52.368;4.940;2023-05-09T06:49:35;20.08;;;8.45;;
40254;SDS011;25973;52.368;4.940;2023-05-09T06:52:00;17.25;;;9.73;;
40254;SDS011;25973;52.368;4.940;2023-05-09T06:54:26;21.10;;;9.40;;
40254;SDS011;25973;52.368;4.940;2023-05-09T06:56:52;18.88;;;8.68;;
40254;SDS011;25973;52.368;4.940;2023-05-09T06:59:17;19.63;;;9.73;;
40254;SDS011;25973;52.368;4.940;2023-05-09T07:01:43;25.58;;;10.63;;
40254;SDS011;25973;52.368;4.940;2023-05-09T07:04:08;22.02;;;9.48;;
40254;SDS011;25973;52.368;4.940;2023-05-09T07:06:34;20.20;;;9.60;;
40254;SDS011;25973;52.368;4.940;2023-05-09T07:09:00;22.50;;;11.13;;
40254;SDS011;25973;52.368;4.940;2023-05-09T07:11:26;16.45;;;9.80;;
40254;SDS011;25973;52.368;4.940;2023-05-09T07:13:51;18.58;;;9.75;;
40254;SDS011;25973;52.368;4.940;2023-05-09T07:16:17;19.25;;;9.52;;
40254;SDS011;25973;52.368;4.940;2023-05-09T07:18:42;17.90;;;9.55;;
40254;SDS011;25973;52.368;4.940;2023-05-09T07:21:08;20.70;;;9.23;;
40254;SDS011;25973;52.368;4.940;2023-05-09T07:23:33;19.50;;;9.38;;
40254;SDS011;25973;52.368;4.940;2023-05-09T07:25:59;18.83;;;9.02;;
40254;SDS011;25973;52.368;4.940;2023-05-09T07:28:25;20.42;;;10.15;;
40254;SDS011;25973;52.368;4.940;2023-05-09T07:30:51;20.65;;;8.82;;
40254;SDS011;25973;52.368;4.940;2023-05-09T07:33:18;16.48;;;9.35;;
40254;SDS011;25973;52.368;4.940;2023-05-09T07:35:44;25.63;;;9.73;;
40254;SDS011;25973;52.368;4.940;2023-05-09T07:38:10;18.42;;;9.10;;
40254;SDS011;25973;52.368;4.940;2023-05-09T07:40:35;20.27;;;9.43;;
40254;SDS011;25973;52.368;4.940;2023-05-09T07:43:02;19.83;;;9.73;;
40254;SDS011;25973;52.368;4.940;2023-05-09T07:45:28;26.50;;;13.07;;
40254;SDS011;25973;52.368;4.940;2023-05-09T07:47:53;17.35;;;9.25;;
40254;SDS011;25973;52.368;4.940;2023-05-09T07:50:19;22.63;;;9.95;;
40254;SDS011;25973;52.368;4.940;2023-05-09T07:52:45;20.15;;;10.48;;
40254;SDS011;25973;52.368;4.940;2023-05-09T07:55:10;17.30;;;9.43;;
40254;SDS011;25973;52.368;4.940;2023-05-09T07:57:36;21.35;;;10.73;;
40254;SDS011;25973;52.368;4.940;2023-05-09T08:00:03;20.75;;;9.68;;
40254;SDS011;25973;52.368;4.940;2023-05-09T08:02:30;19.80;;;9.70;;
40254;SDS011;25973;52.368;4.940;2023-05-09T08:04:56;18.02;;;8.73;;
40254;SDS011;25973;52.368;4.940;2023-05-09T08:07:21;18.70;;;8.70;;
40254;SDS011;25973;52.368;4.940;2023-05-09T08:09:47;15.20;;;7.45;;
40254;SDS011;25973;52.368;4.940;2023-05-09T08:12:12;16.35;;;7.47;;
40254;SDS011;25973;52.368;4.940;2023-05-09T08:14:38;12.98;;;7.32;;
40254;SDS011;25973;52.368;4.940;2023-05-09T08:17:03;15.15;;;8.15;;
40254;SDS011;25973;52.368;4.940;2023-05-09T08:19:29;14.50;;;8.00;;
40254;SDS011;25973;52.368;4.940;2023-05-09T08:21:54;16.88;;;8.40;;
40254;SDS011;25973;52.368;4.940;2023-05-09T08:24:20;16.02;;;7.38;;
40254;SDS011;25973;52.368;4.940;2023-05-09T08:26:45;16.00;;;7.35;;
40254;SDS011;25973;52.368;4.940;2023-05-09T08:29:11;18.50;;;8.02;;
40254;SDS011;25973;52.368;4.940;2023-05-09T08:31:36;15.98;;;8.05;;
40254;SDS011;25973;52.368;4.940;2023-05-09T08:34:02;16.92;;;7.57;;
40254;SDS011;25973;52.368;4.940;2023-05-09T08:36:28;15.57;;;8.18;;
40254;SDS011;25973;52.368;4.940;2023-05-09T08:38:53;15.45;;;8.00;;
40254;SDS011;25973;52.368;4.940;2023-05-09T08:41:19;17.55;;;8.48;;
40254;SDS011;25973;52.368;4.940;2023-05-09T08:43:52;13.40;;;7.43;;
40254;SDS011;25973;52.368;4.940;2023-05-09T08:46:21;15.68;;;7.35;;
40254;SDS011;25973;52.368;4.940;2023-05-09T08:48:51;19.25;;;7.82;;
40254;SDS011;25973;52.368;4.940;2023-05-09T08:51:18;12.90;;;7.55;;
40254;SDS011;25973;52.368;4.940;2023-05-09T08:53:44;14.63;;;8.00;;
40254;SDS011;25973;52.368;4.940;2023-05-09T08:56:09;15.93;;;8.10;;
40254;SDS011;25973;52.368;4.940;2023-05-09T08:58:35;12.93;;;7.15;;
40254;SDS011;25973;52.368;4.940;2023-05-09T09:01:02;13.77;;;7.60;;
40254;SDS011;25973;52.368;4.940;2023-05-09T09:03:31;30.83;;;14.23;;
40254;SDS011;25973;52.368;4.940;2023-05-09T09:05:57;13.32;;;7.68;;
40254;SDS011;25973;52.368;4.940;2023-05-09T09:08:23;16.83;;;8.60;;
40254;SDS011;25973;52.368;4.940;2023-05-09T09:10:50;14.45;;;7.63;;
40254;SDS011;25973;52.368;4.940;2023-05-09T09:13:17;15.20;;;7.85;;
40254;SDS011;25973;52.368;4.940;2023-05-09T09:15:46;17.00;;;8.93;;
40254;SDS011;25973;52.368;4.940;2023-05-09T09:18:17;12.73;;;7.80;;
40254;SDS011;25973;52.368;4.940;2023-05-09T09:20:47;16.13;;;7.38;;
40254;SDS011;25973;52.368;4.940;2023-05-09T09:23:16;22.90;;;9.73;;
40254;SDS011;25973;52.368;4.940;2023-05-09T09:25:45;23.27;;;9.68;;
40254;SDS011;25973;52.368;4.940;2023-05-09T09:28:11;10.52;;;6.45;;
40254;SDS011;25973;52.368;4.940;2023-05-09T09:30:42;9.68;;;5.97;;
40254;SDS011;25973;52.368;4.940;2023-05-09T09:33:08;13.50;;;7.00;;
40254;SDS011;25973;52.368;4.940;2023-05-09T09:35:38;11.93;;;6.75;;
40254;SDS011;25973;52.368;4.940;2023-05-09T09:38:07;12.93;;;7.93;;
40254;SDS011;25973;52.368;4.940;2023-05-09T09:40:32;10.07;;;6.60;;
40254;SDS011;25973;52.368;4.940;2023-05-09T09:42:58;19.40;;;10.48;;
40254;SDS011;25973;52.368;4.940;2023-05-09T09:45:24;11.50;;;5.75;;
40254;SDS011;25973;52.368;4.940;2023-05-09T09:47:49;10.77;;;6.72;;
40254;SDS011;25973;52.368;4.940;2023-05-09T09:50:16;10.27;;;5.82;;
40254;SDS011;25973;52.368;4.940;2023-05-09T09:52:49;11.13;;;6.40;;
40254;SDS011;25973;52.368;4.940;2023-05-09T09:55:21;9.60;;;5.75;;
40254;SDS011;25973;52.368;4.940;2023-05-09T09:57:48;13.23;;;5.60;;
40254;SDS011;25973;52.368;4.940;2023-05-09T10:00:15;11.32;;;6.10;;
40254;SDS011;25973;52.368;4.940;2023-05-09T10:02:51;12.68;;;6.13;;
40254;SDS011;25973;52.368;4.940;2023-05-09T10:05:21;8.32;;;4.82;;
40254;SDS011;25973;52.368;4.940;2023-05-09T10:10:25;11.57;;;5.65;;
40254;SDS011;25973;52.368;4.940;2023-05-09T10:12:53;10.52;;;6.03;;
40254;SDS011;25973;52.368;4.940;2023-05-09T10:15:21;12.60;;;7.00;;
40254;SDS011;25973;52.368;4.940;2023-05-09T10:17:48;9.05;;;5.75;;
40254;SDS011;25973;52.368;4.940;2023-05-09T10:20:21;11.80;;;6.18;;
40254;SDS011;25973;52.368;4.940;2023-05-09T10:22:47;10.40;;;7.25;;
40254;SDS011;25973;52.368;4.940;2023-05-09T10:25:16;13.65;;;6.32;;
40254;SDS011;25973;52.368;4.940;2023-05-09T10:27:47;11.20;;;5.80;;
40254;SDS011;25973;52.368;4.940;2023-05-09T10:30:31;11.98;;;5.55;;
40254;SDS011;25973;52.368;4.940;2023-05-09T10:33:08;8.68;;;5.30;;
40254;SDS011;25973;52.368;4.940;2023-05-09T10:35:40;10.45;;;5.63;;
40254;SDS011;25973;52.368;4.940;2023-05-09T10:38:09;9.50;;;5.18;;
40254;SDS011;25973;52.368;4.940;2023-05-09T10:40:36;11.23;;;5.93;;
40254;SDS011;25973;52.368;4.940;2023-05-09T10:43:04;9.90;;;6.00;;
40254;SDS011;25973;52.368;4.940;2023-05-09T10:45:31;8.32;;;5.60;;
40254;SDS011;25973;52.368;4.940;2023-05-09T10:47:58;10.10;;;5.38;;
40254;SDS011;25973;52.368;4.940;2023-05-09T10:50:25;12.57;;;6.28;;
40254;SDS011;25973;52.368;4.940;2023-05-09T10:58:27;15.18;;;6.18;;
40254;SDS011;25973;52.368;4.940;2023-05-09T11:00:56;10.43;;;5.80;;
40254;SDS011;25973;52.368;4.940;2023-05-09T11:03:23;11.68;;;5.70;;
40254;SDS011;25973;52.368;4.940;2023-05-09T11:05:58;9.93;;;5.72;;
40254;SDS011;25973;52.368;4.940;2023-05-09T11:08:27;10.85;;;6.13;;
40254;SDS011;25973;52.368;4.940;2023-05-09T11:10:57;10.75;;;5.53;;
40254;SDS011;25973;52.368;4.940;2023-05-09T11:13:30;24.85;;;14.52;;
40254;SDS011;25973;52.368;4.940;2023-05-09T11:18:25;10.13;;;5.45;;
40254;SDS011;25973;52.368;4.940;2023-05-09T11:20:52;8.60;;;4.95;;
40254;SDS011;25973;52.368;4.940;2023-05-09T11:23:19;9.75;;;5.55;;
40254;SDS011;25973;52.368;4.940;2023-05-09T11:26:03;8.93;;;5.35;;
40254;SDS011;25973;52.368;4.940;2023-05-09T11:28:32;9.88;;;5.55;;
40254;SDS011;25973;52.368;4.940;2023-05-09T11:31:08;9.38;;;5.43;;
40254;SDS011;25973;52.368;4.940;2023-05-09T11:33:37;11.20;;;5.70;;
40254;SDS011;25973;52.368;4.940;2023-05-09T11:36:46;10.23;;;5.45;;
40254;SDS011;25973;52.368;4.940;2023-05-09T11:39:07;8.00;;;5.53;;
40254;SDS011;25973;52.368;4.940;2023-05-09T11:41:41;11.95;;;6.28;;
40254;SDS011;25973;52.368;4.940;2023-05-09T11:44:19;10.05;;;5.55;;
40254;SDS011;25973;52.368;4.940;2023-05-09T11:46:46;17.17;;;7.47;;
40254;SDS011;25973;52.368;4.940;2023-05-09T11:49:13;9.10;;;5.72;;
40254;SDS011;25973;52.368;4.940;2023-05-09T11:51:39;12.60;;;6.10;;
40254;SDS011;25973;52.368;4.940;2023-05-09T11:54:05;10.10;;;5.22;;
40254;SDS011;25973;52.368;4.940;2023-05-09T11:56:36;8.65;;;5.90;;
40254;SDS011;25973;52.368;4.940;2023-05-09T11:59:03;9.85;;;5.70;;
40254;SDS011;25973;52.368;4.940;2023-05-09T12:01:30;7.80;;;5.13;;
40254;SDS011;25973;52.368;4.940;2023-05-09T12:03:56;16.42;;;9.15;;
40254;SDS011;25973;52.368;4.940;2023-05-09T12:06:23;10.05;;;5.20;;
40254;SDS011;25973;52.368;4.940;2023-05-09T12:08:50;8.30;;;5.30;;
40254;SDS011;25973;52.368;4.940;2023-05-09T12:11:16;9.35;;;6.38;;
40254;SDS011;25973;52.368;4.940;2023-05-09T12:13:46;10.45;;;6.57;;
40254;SDS011;25973;52.368;4.940;2023-05-09T12:16:12;9.87;;;5.70;;
40254;SDS011;25973;52.368;4.940;2023-05-09T12:18:43;10.63;;;6.22;;
40254;SDS011;25973;52.368;4.940;2023-05-09T12:21:13;10.52;;;6.45;;
40254;SDS011;25973;52.368;4.940;2023-05-09T12:23:39;9.15;;;5.93;;
40254;SDS011;25973;52.368;4.940;2023-05-09T12:26:05;9.65;;;6.55;;
40254;SDS011;25973;52.368;4.940;2023-05-09T12:28:30;11.95;;;6.35;;
40254;SDS011;25973;52.368;4.940;2023-05-09T12:30:57;9.32;;;5.72;;
40254;SDS011;25973;52.368;4.940;2023-05-09T12:33:22;12.07;;;6.35;;
40254;SDS011;25973;52.368;4.940;2023-05-09T12:35:59;24.00;;;12.75;;
40254;SDS011;25973;52.368;4.940;2023-05-09T12:38:27;11.20;;;6.75;;
40254;SDS011;25973;52.368;4.940;2023-05-09T12:41:02;9.40;;;5.65;;
40254;SDS011;25973;52.368;4.940;2023-05-09T12:43:35;8.07;;;5.65;;
40254;SDS011;25973;52.368;4.940;2023-05-09T12:46:01;10.40;;;5.60;;
40254;SDS011;25973;52.368;4.940;2023-05-09T12:48:28;8.20;;;5.53;;
40254;SDS011;25973;52.368;4.940;2023-05-09T12:50:55;7.68;;;4.85;;
40254;SDS011;25973;52.368;4.940;2023-05-09T12:53:24;9.95;;;4.72;;
40254;SDS011;25973;52.368;4.940;2023-05-09T12:55:59;7.28;;;4.13;;
40254;SDS011;25973;52.368;4.940;2023-05-09T12:58:30;8.13;;;3.92;;
40254;SDS011;25973;52.368;4.940;2023-05-09T13:00:58;8.02;;;4.65;;
40254;SDS011;25973;52.368;4.940;2023-05-09T13:03:27;8.85;;;4.90;;
40254;SDS011;25973;52.368;4.940;2023-05-09T13:06:00;10.98;;;4.63;;
40254;SDS011;25973;52.368;4.940;2023-05-09T13:08:27;6.68;;;4.93;;
40254;SDS011;25973;52.368;4.940;2023-05-09T13:10:53;7.30;;;4.55;;
40254;SDS011;25973;52.368;4.940;2023-05-09T13:13:19;6.63;;;4.22;;
40254;SDS011;25973;52.368;4.940;2023-05-09T13:15:46;10.68;;;3.92;;
40254;SDS011;25973;52.368;4.940;2023-05-09T13:18:12;4.78;;;3.45;;
40254;SDS011;25973;52.368;4.940;2023-05-09T13:20:38;5.65;;;3.92;;
40254;SDS011;25973;52.368;4.940;2023-05-09T13:23:03;7.07;;;4.15;;
40254;SDS011;25973;52.368;4.940;2023-05-09T13:25:29;8.30;;;4.90;;
40254;SDS011;25973;52.368;4.940;2023-05-09T13:27:55;9.05;;;5.47;;
40254;SDS011;25973;52.368;4.940;2023-05-09T13:30:20;6.82;;;4.55;;
40254;SDS011;25973;52.368;4.940;2023-05-09T13:32:46;7.22;;;4.45;;
40254;SDS011;25973;52.368;4.940;2023-05-09T13:35:12;6.93;;;4.13;;
40254;SDS011;25973;52.368;4.940;2023-05-09T13:37:38;6.97;;;4.30;;
40254;SDS011;25973;52.368;4.940;2023-05-09T13:40:04;6.97;;;4.07;;
40254;SDS011;25973;52.368;4.940;2023-05-09T13:42:32;9.02;;;3.65;;
40254;SDS011;25973;52.368;4.940;2023-05-09T13:44:58;7.53;;;4.43;;
40254;SDS011;25973;52.368;4.940;2023-05-09T13:47:23;12.15;;;6.10;;
40254;SDS011;25973;52.368;4.940;2023-05-09T13:49:49;5.95;;;4.40;;
40254;SDS011;25973;52.368;4.940;2023-05-09T13:52:16;5.28;;;2.78;;
40254;SDS011;25973;52.368;4.940;2023-05-09T13:54:42;5.15;;;3.00;;
40254;SDS011;25973;52.368;4.940;2023-05-09T13:57:07;4.53;;;2.83;;
40254;SDS011;25973;52.368;4.940;2023-05-09T13:59:33;4.07;;;2.75;;
40254;SDS011;25973;52.368;4.940;2023-05-09T14:01:59;3.53;;;2.42;;
40254;SDS011;25973;52.368;4.940;2023-05-09T14:04:25;3.40;;;2.50;;
40254;SDS011;25973;52.368;4.940;2023-05-09T14:06:52;3.83;;;2.47;;
40254;SDS011;25973;52.368;4.940;2023-05-09T14:09:18;7.82;;;4.32;;
40254;SDS011;25973;52.368;4.940;2023-05-09T14:11:46;5.30;;;3.35;;
40254;SDS011;25973;52.368;4.940;2023-05-09T14:14:15;3.38;;;2.10;;
40254;SDS011;25973;52.368;4.940;2023-05-09T14:16:41;3.95;;;2.00;;
40254;SDS011;25973;52.368;4.940;2023-05-09T14:19:07;4.72;;;1.60;;
40254;SDS011;25973;52.368;4.940;2023-05-09T14:21:33;5.55;;;2.20;;
40254;SDS011;25973;52.368;4.940;2023-05-09T14:23:58;2.75;;;2.08;;
40254;SDS011;25973;52.368;4.940;2023-05-09T14:26:24;2.67;;;1.85;;
40254;SDS011;25973;52.368;4.940;2023-05-09T14:28:50;4.05;;;2.63;;
40254;SDS011;25973;52.368;4.940;2023-05-09T14:31:17;4.22;;;2.30;;
40254;SDS011;25973;52.368;4.940;2023-05-09T14:33:43;3.70;;;2.50;;
40254;SDS011;25973;52.368;4.940;2023-05-09T14:36:08;5.68;;;2.35;;
40254;SDS011;25973;52.368;4.940;2023-05-09T14:38:35;4.05;;;1.92;;
40254;SDS011;25973;52.368;4.940;2023-05-09T14:41:01;3.25;;;2.03;;
40254;SDS011;25973;52.368;4.940;2023-05-09T14:43:27;5.07;;;2.75;;
40254;SDS011;25973;52.368;4.940;2023-05-09T14:45:52;4.53;;;2.70;;
40254;SDS011;25973;52.368;4.940;2023-05-09T14:48:18;7.85;;;3.03;;